Time;durP1;ratioP1;P1;durP2;ratioP2;P2;SDS_P1;SDS_P2;PMS_P1;PMS_P2;Temp;Humidity;BMP_temperature;BMP_pressure;BME280_temperature;BME280_humidity;BME280_pressure;Samples;Min_cycle;Max_cycle;Signal;HPM_P1;HPM_P2
2022/03/15 00:00:34;;;;;;;5.53;4.23;;;;;;;;;;4976290;28;20496;-78
2022/03/15 00:03:01;;;;;;;7.97;5.27;;;;;;;;;;4978461;28;20540;-78
2022/03/15 00:05:27;;;;;;;6.83;4.23;;;;;;;;;;4979655;28;20406;-78
2022/03/15 00:07:53;;;;;;;6.23;4.00;;;;;;;;;;4979581;28;20485;-79
2022/03/15 00:10:19;;;;;;;6.60;4.63;;;;;;;;;;4981468;28;20420;-78
2022/03/15 00:12:47;;;;;;;5.87;4.60;;;;;;;;;;4979731;28;20417;-78
2022/03/15 00:15:13;;;;;;;7.20;5.00;;;;;;;;;;4979263;28;20409;-78
2022/03/15 00:17:40;;;;;;;7.90;5.43;;;;;;;;;;4979388;28;20424;-78
2022/03/15 00:20:08;;;;;;;9.50;4.93;;;;;;;;;;4979999;28;20404;-78
2022/03/15 00:22:37;;;;;;;7.80;5.83;;;;;;;;;;4979903;28;20475;-78
2022/03/15 00:25:05;;;;;;;9.90;5.47;;;;;;;;;;4995086;28;20952;-78
2022/03/15 00:27:32;;;;;;;8.20;5.60;;;;;;;;;;4993707;28;20905;-78
2022/03/15 00:29:58;;;;;;;7.40;5.40;;;;;;;;;;4981030;28;20406;-79
2022/03/15 00:32:25;;;;;;;7.57;5.60;;;;;;;;;;4981388;28;20439;-78
2022/03/15 00:34:51;;;;;;;9.53;6.10;;;;;;;;;;4980267;28;20551;-79
2022/03/15 00:37:17;;;;;;;7.10;5.30;;;;;;;;;;4980624;28;20417;-79
2022/03/15 00:39:43;;;;;;;10.83;6.13;;;;;;;;;;4980813;28;20412;-79
2022/03/15 00:42:10;;;;;;;10.73;6.03;;;;;;;;;;4995615;28;20460;-78
2022/03/15 00:44:36;;;;;;;7.50;6.27;;;;;;;;;;4980842;28;20460;-78
2022/03/15 00:47:02;;;;;;;7.73;5.57;;;;;;;;;;4979834;28;20404;-79
2022/03/15 00:49:29;;;;;;;11.40;6.27;;;;;;;;;;4980447;28;20401;-78
2022/03/15 00:51:55;;;;;;;9.93;5.97;;;;;;;;;;4980963;28;20485;-79
2022/03/15 00:54:21;;;;;;;6.87;5.57;;;;;;;;;;4981481;28;20397;-79
2022/03/15 00:56:48;;;;;;;8.70;6.40;;;;;;;;;;4996802;28;20464;-78
2022/03/15 00:59:15;;;;;;;9.23;6.80;;;;;;;;;;4981509;28;20893;-78
2022/03/15 01:01:41;;;;;;;10.80;6.47;;;;;;;;;;4980576;28;20429;-78
2022/03/15 01:04:08;;;;;;;8.33;6.13;;;;;;;;;;4980508;28;20447;-79
2022/03/15 01:06:38;;;;;;;8.03;6.50;;;;;;;;;;4980639;28;20894;-78
2022/03/15 01:09:04;;;;;;;15.80;6.67;;;;;;;;;;4981358;28;20417;-79
2022/03/15 01:11:30;;;;;;;13.40;6.40;;;;;;;;;;4980450;28;20425;-79
2022/03/15 01:13:56;;;;;;;8.97;5.90;;;;;;;;;;4979759;28;20905;-79
2022/03/15 01:16:23;;;;;;;10.43;6.13;;;;;;;;;;4995196;28;20448;-78
2022/03/15 01:18:49;;;;;;;13.43;5.50;;;;;;;;;;4980094;28;20417;-78
2022/03/15 01:21:15;;;;;;;6.73;5.57;;;;;;;;;;5005562;28;20425;-77
2022/03/15 01:23:42;;;;;;;11.53;6.40;;;;;;;;;;4998192;28;20463;-77
2022/03/15 01:26:08;;;;;;;7.40;6.40;;;;;;;;;;4985504;28;20409;-79
2022/03/15 01:28:34;;;;;;;10.40;6.63;;;;;;;;;;4982256;28;20401;-78
2022/03/15 01:31:00;;;;;;;13.30;7.00;;;;;;;;;;4980211;28;20406;-78
2022/03/15 01:33:26;;;;;;;11.37;6.27;;;;;;;;;;4979821;28;20467;-78
2022/03/15 01:35:53;;;;;;;9.53;6.20;;;;;;;;;;4980700;28;20760;-78
2022/03/15 01:38:19;;;;;;;8.93;5.97;;;;;;;;;;4980090;28;20405;-79
2022/03/15 01:40:45;;;;;;;9.90;6.43;;;;;;;;;;4979632;28;20405;-78
2022/03/15 01:43:11;;;;;;;10.93;6.10;;;;;;;;;;4979891;28;20535;-78
2022/03/15 01:45:38;;;;;;;9.53;6.60;;;;;;;;;;4979411;28;20431;-78
2022/03/15 01:48:05;;;;;;;9.33;6.60;;;;;;;;;;4979404;28;20397;-79
2022/03/15 01:50:31;;;;;;;13.70;6.53;;;;;;;;;;4983644;28;20413;-78
2022/03/15 01:52:58;;;;;;;11.37;6.77;;;;;;;;;;4997668;28;20437;-78
2022/03/15 01:55:24;;;;;;;11.40;6.77;;;;;;;;;;4978463;28;20544;-78
2022/03/15 01:57:50;;;;;;;10.00;6.50;;;;;;;;;;4978708;28;20413;-78
2022/03/15 02:00:17;;;;;;;15.70;8.60;;;;;;;;;;4977702;28;20472;-78
2022/03/15 02:02:43;;;;;;;16.90;9.30;;;;;;;;;;4977336;28;20452;-77
2022/03/15 02:05:10;;;;;;;11.33;8.17;;;;;;;;;;4979095;28;20893;-79
2022/03/15 02:07:36;;;;;;;10.30;6.63;;;;;;;;;;4978225;28;20468;-79
2022/03/15 02:10:03;;;;;;;7.40;5.90;;;;;;;;;;4979009;28;20416;-79
2022/03/15 02:12:29;;;;;;;10.30;5.70;;;;;;;;;;4979368;28;20936;-79
2022/03/15 02:15:02;;;;;;;9.90;6.50;;;;;;;;;;4979541;28;20440;-79
2022/03/15 02:17:29;;;;;;;12.33;6.60;;;;;;;;;;4994441;28;20405;-78
2022/03/15 02:19:55;;;;;;;9.03;6.00;;;;;;;;;;4979660;28;20751;-79
2022/03/15 02:22:22;;;;;;;9.50;6.90;;;;;;;;;;4979107;28;20539;-79
2022/03/15 02:24:48;;;;;;;8.87;6.60;;;;;;;;;;4978870;28;20428;-79
2022/03/15 02:27:14;;;;;;;10.80;6.60;;;;;;;;;;4978766;28;20401;-79
2022/03/15 02:29:41;;;;;;;9.10;6.00;;;;;;;;;;4979643;28;20413;-78
2022/03/15 02:32:07;;;;;;;8.33;6.73;;;;;;;;;;4979023;28;20869;-78
2022/03/15 02:34:34;;;;;;;9.10;6.70;;;;;;;;;;4978155;28;20796;-79
2022/03/15 02:37:00;;;;;;;10.30;7.07;;;;;;;;;;4977077;28;20409;-79
2022/03/15 02:39:26;;;;;;;10.13;7.27;;;;;;;;;;4980737;28;20462;-79
2022/03/15 02:41:52;;;;;;;8.67;7.10;;;;;;;;;;4984126;28;20429;-77
2022/03/15 02:44:18;;;;;;;7.80;6.30;;;;;;;;;;4976235;28;20898;-78
2022/03/15 02:46:48;;;;;;;10.03;6.00;;;;;;;;;;4975933;28;21026;-78
2022/03/15 02:49:14;;;;;;;8.00;6.10;;;;;;;;;;4977023;28;20894;-79
2022/03/15 02:51:40;;;;;;;7.07;6.27;;;;;;;;;;4975817;28;20974;-78
2022/03/15 02:54:08;;;;;;;8.17;6.63;;;;;;;;;;4975496;28;20416;-79
2022/03/15 02:56:35;;;;;;;7.90;6.43;;;;;;;;;;4974740;28;20475;-77
2022/03/15 02:59:03;;;;;;;9.17;6.67;;;;;;;;;;4977272;28;20467;-78
2022/03/15 03:01:29;;;;;;;7.67;6.50;;;;;;;;;;4976766;28;20500;-79
2022/03/15 03:03:55;;;;;;;17.10;6.80;;;;;;;;;;4976998;28;20445;-77
2022/03/15 03:06:21;;;;;;;9.40;7.10;;;;;;;;;;4976563;28;20436;-78
2022/03/15 03:08:47;;;;;;;7.97;6.20;;;;;;;;;;4975424;28;20492;-78
2022/03/15 03:11:13;;;;;;;9.20;6.80;;;;;;;;;;4976732;28;20440;-78
2022/03/15 03:13:42;;;;;;;8.30;6.50;;;;;;;;;;4976651;28;20421;-77
2022/03/15 03:16:10;;;;;;;9.30;6.83;;;;;;;;;;4976375;28;20420;-77
2022/03/15 03:18:36;;;;;;;8.10;6.47;;;;;;;;;;4977003;28;20833;-78
2022/03/15 03:21:04;;;;;;;7.47;6.23;;;;;;;;;;4977122;28;20401;-78
2022/03/15 03:23:33;;;;;;;9.53;6.90;;;;;;;;;;4976257;28;20452;-77
2022/03/15 03:25:59;;;;;;;7.80;6.37;;;;;;;;;;4975969;28;20412;-78
2022/03/15 03:28:30;;;;;;;7.63;5.93;;;;;;;;;;4976330;28;20463;-77
2022/03/15 03:30:56;;;;;;;8.60;7.10;;;;;;;;;;4976166;28;20396;-78
2022/03/15 03:33:23;;;;;;;8.30;6.57;;;;;;;;;;4975697;28;20451;-78
2022/03/15 03:35:52;;;;;;;8.47;7.23;;;;;;;;;;4975982;28;20413;-78
2022/03/15 03:38:18;;;;;;;10.77;7.03;;;;;;;;;;4979713;28;20495;-79
2022/03/15 03:40:44;;;;;;;11.33;7.63;;;;;;;;;;4981244;28;20412;-79
2022/03/15 03:43:10;;;;;;;9.33;6.90;;;;;;;;;;4980766;28;20452;-79
2022/03/15 03:45:36;;;;;;;8.37;7.10;;;;;;;;;;4981541;28;20902;-79
2022/03/15 03:48:04;;;;;;;10.13;6.87;;;;;;;;;;4982088;28;20440;-79
2022/03/15 03:50:30;;;;;;;9.57;7.57;;;;;;;;;;4981084;28;20416;-79
2022/03/15 03:52:56;;;;;;;13.13;7.40;;;;;;;;;;4982247;28;20460;-79
2022/03/15 03:55:22;;;;;;;8.50;7.00;;;;;;;;;;4980246;28;20421;-79
2022/03/15 03:57:48;;;;;;;9.03;7.20;;;;;;;;;;4981798;28;20441;-78
2022/03/15 04:00:15;;;;;;;10.70;7.00;;;;;;;;;;4979778;28;20410;-78
2022/03/15 04:02:42;;;;;;;9.50;7.43;;;;;;;;;;4982001;28;20814;-78
2022/03/15 04:05:08;;;;;;;11.40;7.90;;;;;;;;;;4982284;28;20432;-78
2022/03/15 04:07:35;;;;;;;9.57;6.93;;;;;;;;;;4981878;28;20444;-79
2022/03/15 04:10:03;;;;;;;12.07;8.23;;;;;;;;;;4982889;28;20761;-79
2022/03/15 04:12:29;;;;;;;9.43;7.03;;;;;;;;;;4988252;28;20436;-79
2022/03/15 04:14:58;;;;;;;8.97;7.27;;;;;;;;;;5001355;28;20420;-79
2022/03/15 04:17:24;;;;;;;9.80;7.00;;;;;;;;;;5000166;28;20438;-79
2022/03/15 04:19:50;;;;;;;12.80;7.17;;;;;;;;;;5000807;28;20416;-78
2022/03/15 04:22:17;;;;;;;9.83;7.87;;;;;;;;;;4999701;28;20456;-77
2022/03/15 04:24:43;;;;;;;12.23;7.00;;;;;;;;;;4999583;28;20495;-78
2022/03/15 04:27:09;;;;;;;8.90;7.13;;;;;;;;;;5000675;28;20431;-79
2022/03/15 04:29:35;;;;;;;10.83;7.80;;;;;;;;;;5000689;28;20404;-78
2022/03/15 04:32:01;;;;;;;9.73;6.70;;;;;;;;;;5001017;28;20559;-78
2022/03/15 04:34:29;;;;;;;9.73;7.07;;;;;;;;;;5000547;28;20405;-78
2022/03/15 04:36:56;;;;;;;8.30;6.60;;;;;;;;;;5001619;28;20436;-78
2022/03/15 04:39:22;;;;;;;9.10;7.10;;;;;;;;;;5001212;28;20412;-78
2022/03/15 04:41:48;;;;;;;9.47;7.20;;;;;;;;;;5000861;28;20428;-77
2022/03/15 04:44:14;;;;;;;8.97;7.07;;;;;;;;;;5000618;28;20404;-78
2022/03/15 04:46:40;;;;;;;9.30;7.07;;;;;;;;;;5014343;28;20474;-76
2022/03/15 04:49:06;;;;;;;10.60;7.97;;;;;;;;;;4994536;28;20436;-77
2022/03/15 04:51:32;;;;;;;10.03;7.00;;;;;;;;;;4998534;28;20432;-77
2022/03/15 04:53:58;;;;;;;7.77;6.63;;;;;;;;;;4993006;28;20433;-78
2022/03/15 04:56:24;;;;;;;11.57;7.53;;;;;;;;;;4979067;28;20956;-78
2022/03/15 04:58:51;;;;;;;10.70;7.80;;;;;;;;;;4980098;28;20965;-78
2022/03/15 05:01:17;;;;;;;10.13;6.93;;;;;;;;;;4978954;28;20456;-78
2022/03/15 05:03:43;;;;;;;15.90;8.33;;;;;;;;;;4978369;28;20821;-78
2022/03/15 05:06:09;;;;;;;12.30;7.70;;;;;;;;;;4981340;28;20409;-79
2022/03/15 05:08:35;;;;;;;12.33;8.37;;;;;;;;;;4992654;28;20424;-78
2022/03/15 05:11:07;;;;;;;11.30;7.20;;;;;;;;;;4980912;28;20398;-79
2022/03/15 05:13:45;;;;;;;12.87;6.90;;;;;;;;;;4980042;28;20920;-78
2022/03/15 05:16:13;;;;;;;11.97;7.43;;;;;;;;;;4980177;28;20404;-79
2022/03/15 05:18:40;;;;;;;8.27;7.10;;;;;;;;;;4981209;28;20420;-77
2022/03/15 05:21:07;;;;;;;17.30;7.97;;;;;;;;;;4989849;28;20417;-78
2022/03/15 05:23:34;;;;;;;7.87;6.60;;;;;;;;;;4992453;28;20464;-79
2022/03/15 05:26:00;;;;;;;11.10;7.10;;;;;;;;;;4993709;28;20417;-78
2022/03/15 05:28:26;;;;;;;11.53;8.03;;;;;;;;;;4987494;28;20409;-79
2022/03/15 05:30:52;;;;;;;11.80;9.00;;;;;;;;;;4981090;28;20421;-78
2022/03/15 05:33:18;;;;;;;13.03;8.20;;;;;;;;;;5004773;23;20694;-75
2022/03/15 05:35:44;;;;;;;9.80;7.83;;;;;;;;;;5014933;28;20431;-76
2022/03/15 05:38:10;;;;;;;9.10;7.43;;;;;;;;;;5015039;28;20407;-76
2022/03/15 05:40:37;;;;;;;12.97;8.60;;;;;;;;;;5014803;28;20403;-76
2022/03/15 05:43:03;;;;;;;10.83;9.00;;;;;;;;;;5013388;28;20475;-75
2022/03/15 05:45:29;;;;;;;19.53;10.00;;;;;;;;;;5013375;28;20415;-76
2022/03/15 05:47:55;;;;;;;15.77;9.63;;;;;;;;;;5014775;28;20971;-76
2022/03/15 05:50:22;;;;;;;16.13;9.77;;;;;;;;;;5014585;28;20441;-76
2022/03/15 05:52:48;;;;;;;20.03;10.03;;;;;;;;;;5014846;28;20431;-76
2022/03/15 05:55:14;;;;;;;13.93;10.10;;;;;;;;;;5014516;28;20919;-76
2022/03/15 05:57:41;;;;;;;13.03;8.50;;;;;;;;;;5014506;28;20404;-76
2022/03/15 06:00:07;;;;;;;12.50;7.47;;;;;;;;;;5014378;28;20470;-76
2022/03/15 06:02:33;;;;;;;13.20;8.53;;;;;;;;;;5014438;28;20792;-76
2022/03/15 06:05:03;;;;;;;12.03;8.10;;;;;;;;;;5014625;28;20435;-76
2022/03/15 06:07:29;;;;;;;11.97;8.37;;;;;;;;;;5014309;28;20410;-76
2022/03/15 06:09:55;;;;;;;11.77;8.80;;;;;;;;;;5014286;28;20395;-76
2022/03/15 06:12:22;;;;;;;11.53;9.20;;;;;;;;;;5014298;28;20475;-76
2022/03/15 06:14:48;;;;;;;13.17;8.80;;;;;;;;;;5021171;28;20407;-76
2022/03/15 06:17:14;;;;;;;10.97;8.40;;;;;;;;;;5019229;28;20912;-76
2022/03/15 06:19:40;;;;;;;10.77;8.80;;;;;;;;;;5014285;28;20776;-75
2022/03/15 06:22:06;;;;;;;13.23;8.27;;;;;;;;;;5014306;28;20395;-76
2022/03/15 06:24:32;;;;;;;11.90;8.07;;;;;;;;;;5014194;28;20419;-76
2022/03/15 06:26:58;;;;;;;11.13;8.33;;;;;;;;;;5014011;28;20446;-75
2022/03/15 06:29:26;;;;;;;10.80;8.07;;;;;;;;;;5014116;28;20893;-76
2022/03/15 06:31:53;;;;;;;9.40;7.80;;;;;;;;;;5013968;28;20407;-76
2022/03/15 06:34:20;;;;;;;10.27;7.20;;;;;;;;;;5014049;28;20517;-77
2022/03/15 06:36:46;;;;;;;12.57;8.67;;;;;;;;;;5013587;28;20418;-76
2022/03/15 06:39:12;;;;;;;12.07;6.67;;;;;;;;;;5014290;28;20486;-76
2022/03/15 06:41:39;;;;;;;11.30;8.13;;;;;;;;;;5013690;28;20405;-76
2022/03/15 06:44:06;;;;;;;13.80;8.60;;;;;;;;;;5013764;28;20637;-76
2022/03/15 06:46:32;;;;;;;13.00;8.40;;;;;;;;;;5013731;28;20407;-77
2022/03/15 06:48:59;;;;;;;12.27;9.00;;;;;;;;;;5013885;28;20490;-76
2022/03/15 06:51:26;;;;;;;10.90;7.37;;;;;;;;;;5013869;28;20404;-77
2022/03/15 06:53:52;;;;;;;10.70;8.13;;;;;;;;;;5013518;28;20423;-76
2022/03/15 06:56:19;;;;;;;13.53;10.70;;;;;;;;;;5013951;28;20407;-76
2022/03/15 06:58:45;;;;;;;10.50;8.10;;;;;;;;;;5013614;28;20942;-76
2022/03/15 07:01:11;;;;;;;16.40;9.73;;;;;;;;;;5013566;28;20407;-76
2022/03/15 07:03:37;;;;;;;11.93;7.40;;;;;;;;;;5013337;28;20459;-77
2022/03/15 07:06:03;;;;;;;12.90;8.80;;;;;;;;;;5013430;28;20487;-76
2022/03/15 07:08:30;;;;;;;11.60;8.83;;;;;;;;;;5017718;28;20938;-76
2022/03/15 07:10:56;;;;;;;14.67;8.90;;;;;;;;;;5016389;28;20399;-76
2022/03/15 07:13:22;;;;;;;10.80;8.63;;;;;;;;;;5011775;28;20453;-76
2022/03/15 07:15:49;;;;;;;12.07;8.63;;;;;;;;;;5013629;28;20579;-77
2022/03/15 07:18:19;;;;;;;10.87;8.97;;;;;;;;;;5013463;28;20502;-76
2022/03/15 07:20:45;;;;;;;13.83;7.97;;;;;;;;;;5007492;28;20458;-77
2022/03/15 07:23:11;;;;;;;11.80;7.80;;;;;;;;;;5009692;28;20459;-77
2022/03/15 07:25:37;;;;;;;10.90;7.67;;;;;;;;;;5010812;28;20404;-77
2022/03/15 07:28:03;;;;;;;23.40;8.43;;;;;;;;;;5009738;28;20791;-76
2022/03/15 07:30:29;;;;;;;9.93;7.93;;;;;;;;;;5011973;28;20434;-76
2022/03/15 07:32:59;;;;;;;10.00;7.40;;;;;;;;;;5010220;28;20455;-77
2022/03/15 07:35:25;;;;;;;10.10;7.40;;;;;;;;;;5010992;28;20609;-76
2022/03/15 07:37:53;;;;;;;11.27;6.67;;;;;;;;;;5009534;28;20423;-77
2022/03/15 07:40:19;;;;;;;9.80;5.50;;;;;;;;;;5011801;28;20420;-76
2022/03/15 07:42:46;;;;;;;8.80;5.87;;;;;;;;;;5011445;28;20463;-76
2022/03/15 07:45:12;;;;;;;12.10;7.50;;;;;;;;;;5007917;28;20914;-77
2022/03/15 07:47:38;;;;;;;11.20;6.93;;;;;;;;;;5006125;28;20474;-75
2022/03/15 07:50:05;;;;;;;11.07;7.47;;;;;;;;;;5011107;28;20435;-75
2022/03/15 07:52:31;;;;;;;11.57;7.30;;;;;;;;;;5011030;28;20469;-75
2022/03/15 07:54:57;;;;;;;8.53;5.87;;;;;;;;;;5009033;28;20415;-75
2022/03/15 07:57:25;;;;;;;11.60;6.40;;;;;;;;;;5013845;28;20422;-76
2022/03/15 07:59:51;;;;;;;8.97;5.60;;;;;;;;;;5016210;28;20783;-75
2022/03/15 08:02:17;;;;;;;12.70;6.00;;;;;;;;;;5005579;28;20778;-76
2022/03/15 08:04:43;;;;;;;8.43;6.23;;;;;;;;;;5012750;28;20487;-74
2022/03/15 08:07:10;;;;;;;10.03;7.07;;;;;;;;;;5010902;28;20514;-74
2022/03/15 08:09:38;;;;;;;9.10;7.17;;;;;;;;;;5012260;28;20418;-75
2022/03/15 08:12:04;;;;;;;8.50;6.17;;;;;;;;;;5011964;28;20455;-75
2022/03/15 08:14:30;;;;;;;7.23;5.27;;;;;;;;;;5010441;28;20454;-74
2022/03/15 08:16:56;;;;;;;7.00;5.50;;;;;;;;;;5018894;28;20422;-75
2022/03/15 08:19:23;;;;;;;10.10;5.50;;;;;;;;;;5010009;28;20415;-76
2022/03/15 08:21:49;;;;;;;8.93;5.23;;;;;;;;;;5006481;28;20430;-75
2022/03/15 08:24:17;;;;;;;9.90;5.70;;;;;;;;;;5021686;28;20553;-75
2022/03/15 08:26:43;;;;;;;8.23;6.00;;;;;;;;;;5012118;28;20445;-75
2022/03/15 08:29:10;;;;;;;9.33;5.97;;;;;;;;;;5013468;28;20411;-76
2022/03/15 08:31:36;;;;;;;8.77;5.93;;;;;;;;;;5006953;28;20454;-75
2022/03/15 08:34:03;;;;;;;7.40;5.10;;;;;;;;;;5011991;28;20467;-75
2022/03/15 08:36:29;;;;;;;11.13;5.70;;;;;;;;;;5013448;28;20939;-76
2022/03/15 08:38:55;;;;;;;6.50;4.50;;;;;;;;;;5014728;28;20415;-75
2022/03/15 08:41:21;;;;;;;8.10;4.87;;;;;;;;;;5012519;28;20431;-76
2022/03/15 08:43:48;;;;;;;6.30;5.20;;;;;;;;;;5012098;28;20516;-75
2022/03/15 08:46:14;;;;;;;8.93;5.33;;;;;;;;;;5012404;28;20868;-75
2022/03/15 08:48:40;;;;;;;12.33;5.50;;;;;;;;;;5013550;28;20423;-75
2022/03/15 08:51:07;;;;;;;11.03;5.33;;;;;;;;;;5012790;28;20436;-75
2022/03/15 08:53:33;;;;;;;7.53;4.73;;;;;;;;;;5013252;28;20454;-76
2022/03/15 08:55:59;;;;;;;7.67;5.00;;;;;;;;;;5012880;28;20419;-75
2022/03/15 08:58:25;;;;;;;6.90;5.27;;;;;;;;;;5013380;28;20411;-76
2022/03/15 09:00:52;;;;;;;14.17;5.47;;;;;;;;;;5013319;28;20435;-75
2022/03/15 09:03:18;;;;;;;8.47;5.13;;;;;;;;;;5012521;28;20467;-74
2022/03/15 09:05:44;;;;;;;12.33;5.30;;;;;;;;;;5012568;28;20438;-75
2022/03/15 09:08:11;;;;;;;8.63;5.30;;;;;;;;;;5012068;28;20846;-76
2022/03/15 09:10:37;;;;;;;8.27;5.57;;;;;;;;;;5011595;28;20494;-76
2022/03/15 09:13:06;;;;;;;7.93;4.83;;;;;;;;;;5013975;28;21002;-74
2022/03/15 09:15:32;;;;;;;8.10;5.00;;;;;;;;;;5013412;28;20431;-75
2022/03/15 09:17:59;;;;;;;6.50;5.00;;;;;;;;;;5001187;28;20431;-75
2022/03/15 09:20:25;;;;;;;7.90;5.60;;;;;;;;;;5004978;28;20423;-76
2022/03/15 09:22:52;;;;;;;12.03;5.00;;;;;;;;;;5012096;28;20543;-76
2022/03/15 09:25:18;;;;;;;10.20;5.13;;;;;;;;;;5010889;28;20461;-77
2022/03/15 09:27:46;;;;;;;14.30;6.40;;;;;;;;;;5009895;28;20717;-76
2022/03/15 09:30:12;;;;;;;7.50;5.30;;;;;;;;;;5009840;28;20478;-77
2022/03/15 09:32:38;;;;;;;14.43;5.80;;;;;;;;;;5007860;28;20427;-76
2022/03/15 09:35:05;;;;;;;14.10;6.57;;;;;;;;;;5013666;28;20450;-76
2022/03/15 09:37:31;;;;;;;14.00;5.38;;;;;;;;;;5006898;28;20419;-76
2022/03/15 09:39:58;;;;;;;17.90;9.50;;;;;;;;;;5011650;28;20173;-77
2022/03/15 09:42:24;;;;;;;7.57;5.23;;;;;;;;;;5011943;28;20451;-76
2022/03/15 09:44:51;;;;;;;8.60;5.43;;;;;;;;;;5010320;28;20530;-76
2022/03/15 09:47:18;;;;;;;9.40;5.67;;;;;;;;;;5013144;28;20438;-76
2022/03/15 09:49:45;;;;;;;6.40;4.87;;;;;;;;;;5011284;28;20950;-78
2022/03/15 09:52:12;;;;;;;9.00;5.57;;;;;;;;;;5013206;28;21022;-76
2022/03/15 09:54:38;;;;;;;7.20;6.00;;;;;;;;;;5015265;28;20959;-77
2022/03/15 09:57:05;;;;;;;10.07;5.73;;;;;;;;;;5013697;28;20400;-75
2022/03/15 09:59:32;;;;;;;10.90;5.97;;;;;;;;;;5013967;28;20454;-75
2022/03/15 10:01:59;;;;;;;7.87;5.40;;;;;;;;;;5011459;28;20407;-77
2022/03/15 10:04:25;;;;;;;8.10;5.57;;;;;;;;;;5008915;28;20459;-74
2022/03/15 10:06:52;;;;;;;9.23;4.93;;;;;;;;;;5012533;28;20423;-74
2022/03/15 10:09:18;;;;;;;9.20;4.80;;;;;;;;;;5011291;28;20427;-78
2022/03/15 10:11:44;;;;;;;8.17;5.47;;;;;;;;;;4995430;28;20180;-76
2022/03/15 10:14:10;;;;;;;7.30;4.87;;;;;;;;;;5004532;28;20431;-77
2022/03/15 10:16:40;;;;;;;9.57;4.30;;;;;;;;;;5012755;28;20427;-76
2022/03/15 10:19:08;;;;;;;12.80;4.83;;;;;;;;;;5012814;28;20746;-76
2022/03/15 10:21:50;;;;;;;6.63;4.90;;;;;;;;;;5016317;28;20754;-77
2022/03/15 10:24:22;;;;;;;8.10;5.30;;;;;;;;;;5015276;28;20494;-77
2022/03/15 10:26:49;;;;;;;6.47;5.20;;;;;;;;;;5012211;28;20411;-76
2022/03/15 10:29:16;;;;;;;6.97;4.63;;;;;;;;;;5011274;28;20439;-76
2022/03/15 10:31:42;;;;;;;8.70;5.00;;;;;;;;;;5008411;28;20502;-77
2022/03/15 10:34:09;;;;;;;7.53;5.30;;;;;;;;;;5010354;28;20211;-77
2022/03/15 10:36:38;;;;;;;7.03;5.00;;;;;;;;;;5011727;28;20896;-77
2022/03/15 10:39:05;;;;;;;9.60;5.20;;;;;;;;;;5011421;28;20493;-77
2022/03/15 10:41:31;;;;;;;8.55;5.28;;;;;;;;;;5012949;28;20411;-77
2022/03/15 10:43:57;;;;;;;8.20;4.90;;;;;;;;;;5012108;28;20904;-76
2022/03/15 10:46:24;;;;;;;7.63;4.70;;;;;;;;;;5011025;28;20416;-76
2022/03/15 10:49:01;;;;;;;7.43;4.60;;;;;;;;;;5008223;28;20485;-76
2022/03/15 10:51:27;;;;;;;7.07;4.80;;;;;;;;;;5010616;28;20779;-78
2022/03/15 10:54:00;;;;;;;8.83;4.80;;;;;;;;;;5008412;28;20455;-76
2022/03/15 10:56:26;;;;;;;9.57;4.70;;;;;;;;;;5008969;28;20427;-76
2022/03/15 10:58:55;;;;;;;8.17;4.73;;;;;;;;;;5010387;28;20427;-77
2022/03/15 11:01:25;;;;;;;7.80;4.53;;;;;;;;;;5006280;28;20439;-76
2022/03/15 11:04:02;;;;;;;9.00;4.70;;;;;;;;;;4998269;28;21171;-76
2022/03/15 11:06:37;;;;;;;7.80;4.90;;;;;;;;;;5006561;28;20419;-77
2022/03/15 11:09:14;;;;;;;4.20;3.80;;;;;;;;;;5007457;28;20407;-78
2022/03/15 11:11:41;;;;;;;7.95;3.88;;;;;;;;;;5006848;28;20443;-76
2022/03/15 11:14:10;;;;;;;8.73;4.30;;;;;;;;;;5008390;28;20694;-77
2022/03/15 11:16:37;;;;;;;7.90;4.27;;;;;;;;;;5006944;28;20927;-76
2022/03/15 11:19:04;;;;;;;6.30;4.03;;;;;;;;;;5008686;28;20774;-76
2022/03/15 11:21:33;;;;;;;7.40;5.13;;;;;;;;;;5007502;28;20512;-78
2022/03/15 11:23:59;;;;;;;10.10;4.90;;;;;;;;;;5007766;28;20331;-76
2022/03/15 11:26:27;;;;;;;6.97;3.87;;;;;;;;;;5008919;28;20806;-77
2022/03/15 11:28:53;;;;;;;10.37;5.10;;;;;;;;;;5011094;28;20509;-77
2022/03/15 11:31:19;;;;;;;6.33;4.50;;;;;;;;;;5008823;28;20415;-78
2022/03/15 11:36:26;;;;;;;5.90;3.87;;;;;;;;;;5009353;28;20463;-76
2022/03/15 11:38:53;;;;;;;9.90;4.50;;;;;;;;;;5011541;28;20450;-76
2022/03/15 11:41:20;;;;;;;5.57;3.90;;;;;;;;;;5010818;28;20831;-75
2022/03/15 11:43:50;;;;;;;7.50;4.57;;;;;;;;;;5008497;28;20467;-76
2022/03/15 11:46:36;;;;;;;6.93;4.30;;;;;;;;;;4988810;28;20533;-77
2022/03/15 11:49:11;;;;;;;6.67;4.00;;;;;;;;;;4988498;28;20420;-76
2022/03/15 11:51:37;;;;;;;4.57;3.53;;;;;;;;;;4988741;28;20433;-75
2022/03/15 11:54:19;;;;;;;7.40;4.50;;;;;;;;;;4989824;28;20431;-76
2022/03/15 11:56:45;;;;;;;7.97;4.43;;;;;;;;;;4988470;28;20768;-77
2022/03/15 11:59:11;;;;;;;4.43;3.43;;;;;;;;;;4993522;28;20439;-76
2022/03/15 12:01:44;;;;;;;6.83;3.87;;;;;;;;;;4994140;28;20420;-77
2022/03/15 12:04:11;;;;;;;7.10;4.13;;;;;;;;;;4988604;28;20471;-76
2022/03/15 12:06:37;;;;;;;9.20;4.03;;;;;;;;;;4993813;28;21252;-77
2022/03/15 12:09:11;;;;;;;7.00;3.97;;;;;;;;;;4990365;28;20411;-77
2022/03/15 12:11:39;;;;;;;5.13;2.90;;;;;;;;;;4991867;28;20519;-77
2022/03/15 12:14:09;;;;;;;5.50;3.10;;;;;;;;;;4992199;28;20420;-77
2022/03/15 12:16:44;;;;;;;4.47;2.50;;;;;;;;;;4982964;28;20436;-78
2022/03/15 12:21:57;;;;;;;5.07;2.90;;;;;;;;;;4993035;28;20404;-77
2022/03/15 12:24:52;;;;;;;14.30;3.83;;;;;;;;;;4988779;28;20507;-76
2022/03/15 12:27:20;;;;;;;6.43;4.23;;;;;;;;;;4981429;28;20434;-77
2022/03/15 12:29:52;;;;;;;8.97;5.37;;;;;;;;;;4990923;28;20442;-78
2022/03/15 12:32:19;;;;;;;4.30;3.07;;;;;;;;;;4991442;28;20482;-76
2022/03/15 12:34:49;;;;;;;5.43;3.10;;;;;;;;;;4992144;28;20463;-76
2022/03/15 12:37:15;;;;;;;7.70;4.00;;;;;;;;;;4990773;28;20424;-77
2022/03/15 12:39:44;;;;;;;4.87;3.00;;;;;;;;;;4991967;28;20936;-76
2022/03/15 12:42:11;;;;;;;8.00;3.00;;;;;;;;;;4990702;28;20563;-77
2022/03/15 12:44:44;;;;;;;4.97;2.47;;;;;;;;;;4991073;28;20963;-79
2022/03/15 12:47:11;;;;;;;4.13;2.83;;;;;;;;;;4990851;28;20924;-78
2022/03/15 12:49:37;;;;;;;5.20;2.90;;;;;;;;;;4993266;28;20436;-77
2022/03/15 12:52:13;;;;;;;7.03;3.20;;;;;;;;;;4994084;28;20787;-78
2022/03/15 12:54:40;;;;;;;3.20;2.70;;;;;;;;;;4992856;28;20943;-77
2022/03/15 12:57:14;;;;;;;9.43;3.20;;;;;;;;;;4993823;28;20513;-78
2022/03/15 12:59:41;;;;;;;4.28;2.70;;;;;;;;;;4988216;28;20508;-77
2022/03/15 13:02:07;;;;;;;6.20;3.00;;;;;;;;;;4992390;28;20748;-75
2022/03/15 13:04:34;;;;;;;5.00;2.80;;;;;;;;;;4988056;28;20491;-77
2022/03/15 13:07:04;;;;;;;3.47;2.50;;;;;;;;;;4985792;28;20427;-76
2022/03/15 13:09:30;;;;;;;8.13;3.77;;;;;;;;;;4985028;28;20436;-77
2022/03/15 13:11:56;;;;;;;6.60;2.30;;;;;;;;;;4990843;28;20424;-76
2022/03/15 13:14:24;;;;;;;4.47;2.53;;;;;;;;;;4990056;28;20443;-77
2022/03/15 13:16:50;;;;;;;4.90;2.70;;;;;;;;;;4991559;28;20682;-76
2022/03/15 13:19:26;;;;;;;9.33;3.50;;;;;;;;;;4990510;28;20967;-77
2022/03/15 13:21:53;;;;;;;6.33;3.43;;;;;;;;;;4989822;28;20432;-77
2022/03/15 13:24:23;;;;;;;5.37;3.30;;;;;;;;;;4993008;28;20529;-75
2022/03/15 13:26:57;;;;;;;3.73;2.60;;;;;;;;;;4989084;28;20504;-75
2022/03/15 13:29:26;;;;;;;4.67;2.67;;;;;;;;;;4991791;28;20420;-75
2022/03/15 13:31:52;;;;;;;5.50;3.40;;;;;;;;;;4991821;28;20440;-75
2022/03/15 13:34:26;;;;;;;8.23;3.90;;;;;;;;;;4992921;28;20999;-75
2022/03/15 13:36:53;;;;;;;6.30;3.90;;;;;;;;;;4991344;28;20870;-75
2022/03/15 13:39:23;;;;;;;4.87;3.87;;;;;;;;;;4987959;28;20212;-76
2022/03/15 13:41:51;;;;;;;4.93;3.20;;;;;;;;;;4984163;28;20507;-75
2022/03/15 13:44:22;;;;;;;5.30;3.27;;;;;;;;;;4993051;28;20499;-75
2022/03/15 13:46:50;;;;;;;8.85;4.72;;;;;;;;;;4990372;28;20425;-75
2022/03/15 13:49:24;;;;;;;11.00;6.50;;;;;;;;;;4984368;28;20625;-74
2022/03/15 13:52:00;;;;;;;10.20;4.30;;;;;;;;;;4986371;28;20578;-76
2022/03/15 13:54:27;;;;;;;9.00;4.43;;;;;;;;;;4991516;28;20537;-76
2022/03/15 13:56:54;;;;;;;6.68;4.30;;;;;;;;;;4989820;28;20424;-75
2022/03/15 13:59:25;;;;;;;6.38;3.78;;;;;;;;;;4989217;28;20742;-76
2022/03/15 14:01:52;;;;;;;7.07;3.20;;;;;;;;;;4990052;28;20697;-76
2022/03/15 14:04:19;;;;;;;7.80;4.10;;;;;;;;;;4989283;28;20460;-76
2022/03/15 14:06:46;;;;;;;9.33;4.33;;;;;;;;;;5005988;28;20430;-75
2022/03/15 14:09:26;;;;;;;5.80;3.77;;;;;;;;;;4995394;28;22195;-76
2022/03/15 14:12:11;;;;;;;7.60;3.80;;;;;;;;;;4990955;28;20419;-75
2022/03/15 14:14:48;;;;;;;5.27;3.77;;;;;;;;;;4988928;28;20443;-75
2022/03/15 14:17:15;;;;;;;8.00;5.40;;;;;;;;;;4996216;28;20444;-77
2022/03/15 14:19:49;;;;;;;6.40;3.77;;;;;;;;;;5002028;28;20882;-76
2022/03/15 14:22:22;;;;;;;12.67;5.73;;;;;;;;;;4985728;28;20436;-76
2022/03/15 14:24:49;;;;;;;6.30;4.27;;;;;;;;;;4986909;28;20551;-76
2022/03/15 14:27:16;;;;;;;6.63;4.03;;;;;;;;;;4991955;28;20428;-76
2022/03/15 14:29:49;;;;;;;11.97;8.00;;;;;;;;;;4991786;28;20518;-76
2022/03/15 14:32:15;;;;;;;8.93;5.73;;;;;;;;;;4987472;28;20935;-76
2022/03/15 14:34:51;;;;;;;10.63;5.17;;;;;;;;;;4988574;28;20460;-75
2022/03/15 14:37:18;;;;;;;10.20;4.90;;;;;;;;;;4987832;28;20777;-76
2022/03/15 14:39:46;;;;;;;8.93;4.43;;;;;;;;;;4990136;28;20452;-76
2022/03/15 14:42:13;;;;;;;6.73;5.10;;;;;;;;;;4990590;28;20416;-76
2022/03/15 14:44:40;;;;;;;9.83;4.57;;;;;;;;;;4990468;28;20452;-76